Time,TemperatureF,DewpointF,PressureIn,WindDirection,WindDirectionDegrees,WindSpeedMPH,WindSpeedGustMPH,Humidity,HourlyPrecipIn,Conditions,Clouds,dailyrainin,SolarRadiationWatts/m^2,SoftwareType,DateUTC
2013-05-15 00:14:00,36.5,27.0,30.02,WNW,297,0.0,0.0,69,0.00,,,0.00,0,weatherlink.com 1.10,2013-05-15 04:14:00,
2013-05-15 00:29:00,36.2,27.0,30.02,WNW,297,0.0,1.0,69,0.00,,,0.00,0,weatherlink.com 1.10,2013-05-15 04:29:00,
2013-05-15 00:44:00,35.9,27.0,30.02,WNW,297,0.0,1.0,70,0.00,,,0.00,0,weatherlink.com 1.10,2013-05-15 04:44:00,
2013-05-15 00:59:00,35.9,27.0,30.02,WNW,297,0.0,1.0,70,0.00,,,0.00,0,weatherlink.com 1.10,2013-05-15 04:59:00,
2013-05-15 01:14:00,35.9,27.0,30.01,WNW,297,0.0,0.0,69,0.00,,,0.00,0,weatherlink.com 1.10,2013-05-15 05:14:00,
2013-05-15 01:29:00,35.0,27.0,30.01,WNW,297,0.0,1.0,73,0.00,,,0.00,0,weatherlink.com 1.10,2013-05-15 05:29:00,
2013-05-15 01:44:00,35.1,29.0,30.01,WNW,297,0.0,1.0,77,0.00,,,0.00,0,weatherlink.com 1.10,2013-05-15 05:44:00,
2013-05-15 01:59:00,33.8,28.0,30.01,WNW,297,0.0,1.0,78,0.00,,,0.00,0,weatherlink.com 1.10,2013-05-15 05:59:00,
2013-05-15 02:14:00,32.6,26.0,30.00,WNW,297,0.0,0.0,78,0.00,,,0.00,0,weatherlink.com 1.10,2013-05-15 06:14:00,
2013-05-15 02:29:00,32.9,26.0,30.00,WNW,297,0.0,0.0,77,0.00,,,0.00,0,weatherlink.com 1.10,2013-05-15 06:29:00,
2013-05-15 02:44:00,33.3,26.0,30.00,WNW,297,0.0,0.0,74,0.00,,,0.00,0,weatherlink.com 1.10,2013-05-15 06:44:00,
2013-05-15 02:59:00,33.4,26.0,30.00,WNW,297,0.0,0.0,74,0.00,,,0.00,0,weatherlink.com 1.10,2013-05-15 06:59:00,
2013-05-15 03:14:00,33.5,26.0,30.00,WNW,297,0.0,0.0,74,0.00,,,0.00,0,weatherlink.com 1.10,2013-05-15 07:14:00,
2013-05-15 03:29:00,33.5,26.0,30.00,WNW,297,0.0,0.0,74,0.00,,,0.00,0,weatherlink.com 1.10,2013-05-15 07:29:00,
2013-05-15 03:44:00,32.7,26.0,29.99,WNW,297,0.0,0.0,75,0.00,,,0.00,0,weatherlink.com 1.10,2013-05-15 07:44:00,
2013-05-15 03:59:00,32.1,25.0,30.00,WNW,297,0.0,1.0,76,0.00,,,0.00,0,weatherlink.com 1.10,2013-05-15 07:59:00,
2013-05-15 04:14:00,30.9,25.0,30.00,WNW,297,0.0,1.0,79,0.00,,,0.00,0,weatherlink.com 1.10,2013-05-15 08:14:00,
2013-05-15 04:29:00,30.3,25.0,30.00,WNW,297,0.0,0.0,79,0.00,,,0.00,0,weatherlink.com 1.10,2013-05-15 08:29:00,
2013-05-15 04:44:00,30.8,25.0,30.00,WNW,297,0.0,1.0,78,0.00,,,0.00,0,weatherlink.com 1.10,2013-05-15 08:44:00,
2013-05-15 04:59:00,31.6,25.0,30.00,WNW,297,0.0,1.0,75,0.00,,,0.00,0,weatherlink.com 1.10,2013-05-15 08:59:00,
2013-05-15 05:14:00,31.9,25.0,29.99,WNW,297,0.0,0.0,74,0.00,,,0.00,0,weatherlink.com 1.10,2013-05-15 09:14:00,
2013-05-15 05:29:00,32.1,25.0,29.99,WNW,297,0.0,0.0,74,0.00,,,0.00,0,weatherlink.com 1.10,2013-05-15 09:29:00,
2013-05-15 05:44:00,32.4,25.0,29.99,WNW,297,0.0,0.0,74,0.00,,,0.00,11,weatherlink.com 1.10,2013-05-15 09:44:00,
2013-05-15 05:59:00,32.9,25.0,29.99,WNW,297,0.0,0.0,73,0.00,,,0.00,25,weatherlink.com 1.10,2013-05-15 09:59:00,
2013-05-15 06:14:00,34.8,27.0,29.99,WNW,297,0.0,0.0,73,0.00,,,0.00,56,weatherlink.com 1.10,2013-05-15 10:14:00,
2013-05-15 06:29:00,36.2,29.0,29.98,WNW,297,0.0,0.0,75,0.00,,,0.00,102,weatherlink.com 1.10,2013-05-15 10:29:00,
2013-05-15 06:44:00,37.3,28.0,29.99,WNW,297,0.0,1.0,70,0.00,,,0.00,156,weatherlink.com 1.10,2013-05-15 10:44:00,
2013-05-15 06:59:00,38.5,29.0,29.99,WNW,297,0.0,0.0,68,0.00,,,0.00,209,weatherlink.com 1.10,2013-05-15 10:59:00,
2013-05-15 07:16:00,39.7,30.0,29.98,SSW,197,0.0,5.0,69,0.00,,,0.00,265,weatherlink.com 1.10,2013-05-15 11:16:00,
2013-05-15 07:31:00,40.2,30.0,29.98,SSW,195,1.0,4.0,68,0.00,,,0.00,257,weatherlink.com 1.10,2013-05-15 11:31:00,
2013-05-15 07:46:00,40.5,30.0,29.98,SSW,194,1.0,4.0,66,0.00,,,0.00,267,weatherlink.com 1.10,2013-05-15 11:46:00,
2013-05-15 08:01:00,41.7,31.0,29.97,East,80,0.0,5.0,65,0.00,,,0.00,410,weatherlink.com 1.10,2013-05-15 12:01:00,
2013-05-15 08:46:00,46.5,29.0,29.95,SSE,151,10.0,14.0,51,0.00,,,0.00,547,weatherlink.com 1.10,2013-05-15 12:46:00,
2013-05-15 09:01:00,47.3,31.0,29.95,South,180,10.0,15.0,54,0.00,,,0.00,592,weatherlink.com 1.10,2013-05-15 13:01:00,
2013-05-15 09:17:00,48.5,30.0,29.94,SSW,192,12.0,14.0,50,0.00,,,0.00,636,weatherlink.com 1.10,2013-05-15 13:17:00,
2013-05-15 09:31:00,49.6,29.0,29.93,SSW,208,7.0,14.0,46,0.00,,,0.00,691,weatherlink.com 1.10,2013-05-15 13:31:00,
2013-05-15 10:02:00,51.4,30.0,29.92,SE,142,5.0,19.0,44,0.00,,,0.00,629,weatherlink.com 1.10,2013-05-15 14:02:00,
2013-05-15 10:17:00,51.1,30.0,29.91,SE,140,5.0,20.0,45,0.00,,,0.00,357,weatherlink.com 1.10,2013-05-15 14:17:00,
2013-05-15 10:33:00,52.1,31.0,29.91,SSE,152,5.0,16.0,45,0.00,,,0.00,654,weatherlink.com 1.10,2013-05-15 14:33:00,
2013-05-15 10:48:00,52.3,32.0,29.90,South,173,0.0,16.0,46,0.00,,,0.00,413,weatherlink.com 1.10,2013-05-15 14:48:00,
2013-05-15 11:02:00,53.3,33.0,29.90,South,177,8.0,16.0,46,0.00,,,0.00,531,weatherlink.com 1.10,2013-05-15 15:02:00,
2013-05-15 11:33:00,54.3,35.0,29.89,South,173,5.0,18.0,49,0.00,,,0.00,413,weatherlink.com 1.10,2013-05-15 15:33:00,
2013-05-15 11:48:00,54.4,36.0,29.88,SSE,147,7.0,24.0,50,0.00,,,0.00,374,weatherlink.com 1.10,2013-05-15 15:48:00,
2013-05-15 12:19:00,53.5,36.0,29.86,SSE,150,10.0,26.0,52,0.00,,,0.00,336,weatherlink.com 1.10,2013-05-15 16:19:00,
2013-05-15 12:33:00,53.8,37.0,29.85,SSE,159,9.0,26.0,53,0.00,,,0.00,427,weatherlink.com 1.10,2013-05-15 16:33:00,
2013-05-15 13:04:00,54.3,38.0,29.82,SSE,154,5.0,20.0,55,0.00,,,0.00,332,weatherlink.com 1.10,2013-05-15 17:04:00,
2013-05-15 14:05:00,48.9,41.0,29.79,SSE,158,4.0,12.0,74,0.01,,,0.01,26,weatherlink.com 1.10,2013-05-15 18:05:00,
2013-05-15 14:34:00,45.5,42.0,29.79,SSE,165,8.0,8.0,88,0.09,,,0.09,16,weatherlink.com 1.10,2013-05-15 18:34:00,
2013-05-15 15:05:00,46.6,44.0,29.75,SSE,164,8.0,28.0,91,0.10,,,0.11,241,weatherlink.com 1.10,2013-05-15 19:05:00,
2013-05-15 15:21:00,46.9,45.0,29.74,SSE,157,15.0,21.0,91,0.07,,,0.11,357,weatherlink.com 1.10,2013-05-15 19:21:00,
2013-05-15 15:51:00,48.5,45.0,29.72,South,190,4.0,26.0,87,0.00,,,0.11,362,weatherlink.com 1.10,2013-05-15 19:51:00,
2013-05-15 16:06:00,49.6,46.0,29.71,SSE,151,7.0,24.0,87,0.00,,,0.11,362,weatherlink.com 1.10,2013-05-15 20:06:00,
2013-05-15 16:21:00,48.8,45.0,29.68,SSE,157,9.0,23.0,86,0.00,,,0.11,346,weatherlink.com 1.10,2013-05-15 20:21:00,
2013-05-15 16:51:00,47.4,45.0,29.66,SW,224,19.0,25.0,90,0.01,,,0.12,58,weatherlink.com 1.10,2013-05-15 20:51:00,
2013-05-15 17:06:00,46.5,45.0,29.67,SSW,207,22.0,22.0,93,0.03,,,0.14,32,weatherlink.com 1.10,2013-05-15 21:06:00,
2013-05-15 17:21:00,46.3,45.0,29.69,South,188,5.0,15.0,94,0.03,,,0.14,28,weatherlink.com 1.10,2013-05-15 21:21:00,
2013-05-15 17:36:00,46.5,45.0,29.68,SSE,153,5.0,23.0,94,0.03,,,0.14,74,weatherlink.com 1.10,2013-05-15 21:36:00,
2013-05-15 17:51:00,46.7,45.0,29.66,SSE,156,12.0,20.0,94,0.02,,,0.14,65,weatherlink.com 1.10,2013-05-15 21:51:00,
2013-05-15 18:06:00,46.7,45.0,29.67,SSE,159,4.0,19.0,95,0.00,,,0.14,35,weatherlink.com 1.10,2013-05-15 22:06:00,
2013-05-15 18:22:00,46.7,45.0,29.66,South,188,6.0,16.0,95,0.00,,,0.14,47,weatherlink.com 1.10,2013-05-15 22:22:00,
2013-05-15 18:37:00,46.7,45.0,29.66,SSW,205,5.0,12.0,95,0.00,,,0.14,32,weatherlink.com 1.10,2013-05-15 22:37:00,
2013-05-15 18:52:00,47.0,46.0,29.66,South,189,7.0,11.0,95,0.00,,,0.14,32,weatherlink.com 1.10,2013-05-15 22:52:00,
2013-05-15 19:07:00,47.1,46.0,29.65,SSW,197,8.0,15.0,96,0.00,,,0.14,19,weatherlink.com 1.10,2013-05-15 23:07:00,
2013-05-15 19:22:00,47.3,46.0,29.65,SSE,163,3.0,13.0,96,0.00,,,0.14,16,weatherlink.com 1.10,2013-05-15 23:22:00,
2013-05-15 19:37:00,47.4,46.0,29.65,SSW,204,6.0,13.0,96,0.00,,,0.14,11,weatherlink.com 1.10,2013-05-15 23:37:00,
2013-05-15 19:53:00,47.4,46.0,29.64,SSE,162,9.0,12.0,96,0.00,,,0.14,5,weatherlink.com 1.10,2013-05-15 23:53:00,
2013-05-15 20:07:00,47.5,47.0,29.64,SSW,195,6.0,10.0,96,0.00,,,0.14,0,weatherlink.com 1.10,2013-05-16 00:07:00,
2013-05-15 20:23:00,47.6,47.0,29.63,SSW,192,6.0,11.0,96,0.00,,,0.14,0,weatherlink.com 1.10,2013-05-16 00:23:00,
2013-05-15 20:53:00,47.9,47.0,29.65,SW,215,4.0,10.0,97,0.00,,,0.14,0,weatherlink.com 1.10,2013-05-16 00:53:00,
2013-05-15 21:08:00,48.0,47.0,29.66,SSE,166,5.0,10.0,97,0.00,,,0.14,0,weatherlink.com 1.10,2013-05-16 01:08:00,
2013-05-15 21:53:00,47.9,47.0,29.67,SSW,203,0.0,9.0,97,0.00,,,0.14,0,weatherlink.com 1.10,2013-05-16 01:53:00,
2013-05-15 22:08:00,47.9,47.0,29.67,SSW,197,4.0,14.0,97,0.00,,,0.14,0,weatherlink.com 1.10,2013-05-16 02:08:00,
2013-05-15 22:23:00,47.9,47.0,29.67,SSW,194,6.0,14.0,97,0.00,,,0.14,0,weatherlink.com 1.10,2013-05-16 02:23:00,
2013-05-15 22:38:00,47.9,47.0,29.67,SSE,164,0.0,11.0,97,0.00,,,0.14,0,weatherlink.com 1.10,2013-05-16 02:38:00,
2013-05-15 23:08:00,48.9,48.0,29.66,West,274,3.0,13.0,97,0.00,,,0.14,0,weatherlink.com 1.10,2013-05-16 03:08:00,